sensor_id;sensor_type;location;lat;lon;timestamp;P1;durP1;ratioP1;P2;durP2;ratioP2
5678;SDS011;2862;52.560;13.566;2023-10-31T00:09:53;20.57;;;3.60;;
5678;SDS011;2862;52.560;13.566;2023-10-31T00:19:57;21.60;;;3.57;;
5678;SDS011;2862;52.560;13.566;2023-10-31T00:30:00;22.33;;;3.43;;
5678;SDS011;2862;52.560;13.566;2023-10-31T00:40:05;22.90;;;3.80;;
5678;SDS011;2862;52.560;13.566;2023-10-31T00:50:09;20.13;;;4.33;;
5678;SDS011;2862;52.560;13.566;2023-10-31T01:00:13;22.47;;;4.87;;
5678;SDS011;2862;52.560;13.566;2023-10-31T01:10:17;22.20;;;4.57;;
5678;SDS011;2862;52.560;13.566;2023-10-31T01:20:21;20.63;;;4.30;;
5678;SDS011;2862;52.560;13.566;2023-10-31T01:30:24;26.93;;;5.07;;
5678;SDS011;2862;52.560;13.566;2023-10-31T01:40:29;21.03;;;5.20;;
5678;SDS011;2862;52.560;13.566;2023-10-31T01:50:32;33.17;;;5.43;;
5678;SDS011;2862;52.560;13.566;2023-10-31T02:00:36;23.37;;;4.83;;
5678;SDS011;2862;52.560;13.566;2023-10-31T02:10:42;28.10;;;6.73;;
5678;SDS011;2862;52.560;13.566;2023-10-31T02:20:46;21.97;;;5.10;;
5678;SDS011;2862;52.560;13.566;2023-10-31T02:30:51;23.27;;;6.03;;
5678;SDS011;2862;52.560;13.566;2023-10-31T02:40:54;25.67;;;6.70;;
5678;SDS011;2862;52.560;13.566;2023-10-31T02:50:59;23.90;;;7.47;;
5678;SDS011;2862;52.560;13.566;2023-10-31T03:01:02;23.47;;;7.00;;
5678;SDS011;2862;52.560;13.566;2023-10-31T03:11:07;23.80;;;7.57;;
5678;SDS011;2862;52.560;13.566;2023-10-31T03:21:10;30.17;;;7.80;;
5678;SDS011;2862;52.560;13.566;2023-10-31T03:31:14;27.33;;;6.13;;
5678;SDS011;2862;52.560;13.566;2023-10-31T03:41:18;25.17;;;8.57;;
5678;SDS011;2862;52.560;13.566;2023-10-31T03:51:24;24.07;;;7.40;;
5678;SDS011;2862;52.560;13.566;2023-10-31T04:01:27;27.73;;;8.50;;
5678;SDS011;2862;52.560;13.566;2023-10-31T04:11:31;34.20;;;9.50;;
5678;SDS011;2862;52.560;13.566;2023-10-31T04:21:34;29.60;;;11.53;;
5678;SDS011;2862;52.560;13.566;2023-10-31T04:31:39;33.50;;;13.30;;
5678;SDS011;2862;52.560;13.566;2023-10-31T04:41:44;31.63;;;13.27;;
5678;SDS011;2862;52.560;13.566;2023-10-31T04:51:48;33.57;;;14.50;;
5678;SDS011;2862;52.560;13.566;2023-10-31T05:01:51;36.77;;;16.20;;
5678;SDS011;2862;52.560;13.566;2023-10-31T05:11:55;42.30;;;17.20;;
5678;SDS011;2862;52.560;13.566;2023-10-31T05:21:58;50.40;;;20.63;;
5678;SDS011;2862;52.560;13.566;2023-10-31T05:32:03;44.40;;;17.80;;
5678;SDS011;2862;52.560;13.566;2023-10-31T05:42:05;36.97;;;14.37;;
5678;SDS011;2862;52.560;13.566;2023-10-31T05:52:10;38.90;;;14.60;;
5678;SDS011;2862;52.560;13.566;2023-10-31T06:02:13;25.30;;;9.13;;
5678;SDS011;2862;52.560;13.566;2023-10-31T06:12:17;26.30;;;10.17;;
5678;SDS011;2862;52.560;13.566;2023-10-31T06:22:20;26.60;;;9.47;;
5678;SDS011;2862;52.560;13.566;2023-10-31T06:32:24;24.90;;;8.40;;
5678;SDS011;2862;52.560;13.566;2023-10-31T06:42:27;29.17;;;10.40;;
5678;SDS011;2862;52.560;13.566;2023-10-31T06:52:31;30.23;;;10.20;;
5678;SDS011;2862;52.560;13.566;2023-10-31T07:02:34;27.80;;;10.50;;
5678;SDS011;2862;52.560;13.566;2023-10-31T07:12:39;27.33;;;9.57;;
5678;SDS011;2862;52.560;13.566;2023-10-31T07:22:41;28.93;;;9.17;;
5678;SDS011;2862;52.560;13.566;2023-10-31T07:32:46;27.33;;;9.20;;
5678;SDS011;2862;52.560;13.566;2023-10-31T07:42:49;17.20;;;2.90;;
5678;SDS011;2862;52.560;13.566;2023-10-31T07:52:53;15.57;;;1.67;;
5678;SDS011;2862;52.560;13.566;2023-10-31T08:02:56;12.37;;;0.83;;
5678;SDS011;2862;52.560;13.566;2023-10-31T08:13:01;15.73;;;1.83;;
5678;SDS011;2862;52.560;13.566;2023-10-31T08:23:04;12.07;;;0.80;;
5678;SDS011;2862;52.560;13.566;2023-10-31T08:33:08;10.97;;;0.40;;
5678;SDS011;2862;52.560;13.566;2023-10-31T08:43:12;12.00;;;0.40;;
5678;SDS011;2862;52.560;13.566;2023-10-31T08:53:16;11.60;;;0.63;;
5678;SDS011;2862;52.560;13.566;2023-10-31T09:03:20;10.37;;;0.20;;
5678;SDS011;2862;52.560;13.566;2023-10-31T09:13:24;10.63;;;0.30;;
5678;SDS011;2862;52.560;13.566;2023-10-31T09:23:28;10.60;;;0.20;;
5678;SDS011;2862;52.560;13.566;2023-10-31T09:33:32;10.97;;;0.20;;
5678;SDS011;2862;52.560;13.566;2023-10-31T09:43:35;14.83;;;0.23;;
5678;SDS011;2862;52.560;13.566;2023-10-31T09:53:39;13.97;;;0.30;;
5678;SDS011;2862;52.560;13.566;2023-10-31T10:03:44;12.63;;;0.43;;
5678;SDS011;2862;52.560;13.566;2023-10-31T10:13:48;11.00;;;0.30;;
5678;SDS011;2862;52.560;13.566;2023-10-31T10:23:54;13.70;;;0.40;;
5678;SDS011;2862;52.560;13.566;2023-10-31T10:33:59;22.03;;;0.30;;
5678;SDS011;2862;52.560;13.566;2023-10-31T10:44:04;12.30;;;0.20;;
5678;SDS011;2862;52.560;13.566;2023-10-31T10:54:11;10.97;;;0.23;;
5678;SDS011;2862;52.560;13.566;2023-10-31T11:04:18;13.23;;;0.53;;
5678;SDS011;2862;52.560;13.566;2023-10-31T11:14:23;13.23;;;0.93;;
5678;SDS011;2862;52.560;13.566;2023-10-31T11:24:28;14.00;;;0.40;;
5678;SDS011;2862;52.560;13.566;2023-10-31T11:34:36;13.83;;;0.37;;
5678;SDS011;2862;52.560;13.566;2023-10-31T11:44:50;12.40;;;0.43;;
5678;SDS011;2862;52.560;13.566;2023-10-31T11:54:59;15.00;;;0.70;;
5678;SDS011;2862;52.560;13.566;2023-10-31T12:05:09;13.57;;;0.40;;
5678;SDS011;2862;52.560;13.566;2023-10-31T12:15:15;11.37;;;0.30;;
5678;SDS011;2862;52.560;13.566;2023-10-31T12:25:18;11.50;;;0.30;;
5678;SDS011;2862;52.560;13.566;2023-10-31T12:35:23;11.40;;;0.30;;
5678;SDS011;2862;52.560;13.566;2023-10-31T12:45:28;11.77;;;0.30;;
5678;SDS011;2862;52.560;13.566;2023-10-31T12:55:37;12.63;;;0.30;;
5678;SDS011;2862;52.560;13.566;2023-10-31T13:05:40;11.77;;;0.20;;
5678;SDS011;2862;52.560;13.566;2023-10-31T13:15:44;12.20;;;0.20;;
5678;SDS011;2862;52.560;13.566;2023-10-31T13:26:10;11.97;;;0.20;;
5678;SDS011;2862;52.560;13.566;2023-10-31T13:36:15;10.80;;;0.20;;
5678;SDS011;2862;52.560;13.566;2023-10-31T13:46:18;12.53;;;0.27;;
5678;SDS011;2862;52.560;13.566;2023-10-31T13:56:22;11.67;;;0.20;;
5678;SDS011;2862;52.560;13.566;2023-10-31T14:06:25;11.53;;;0.20;;
5678;SDS011;2862;52.560;13.566;2023-10-31T14:16:32;10.60;;;0.20;;
5678;SDS011;2862;52.560;13.566;2023-10-31T14:26:36;10.80;;;0.20;;
5678;SDS011;2862;52.560;13.566;2023-10-31T14:36:41;10.37;;;0.20;;
5678;SDS011;2862;52.560;13.566;2023-10-31T14:46:44;11.43;;;0.20;;
5678;SDS011;2862;52.560;13.566;2023-10-31T14:56:48;10.10;;;0.20;;
5678;SDS011;2862;52.560;13.566;2023-10-31T15:06:51;10.20;;;0.20;;
5678;SDS011;2862;52.560;13.566;2023-10-31T15:16:55;10.67;;;0.30;;
5678;SDS011;2862;52.560;13.566;2023-10-31T15:26:58;10.97;;;0.60;;
5678;SDS011;2862;52.560;13.566;2023-10-31T15:37:03;14.57;;;0.50;;
5678;SDS011;2862;52.560;13.566;2023-10-31T15:47:09;15.30;;;1.63;;
5678;SDS011;2862;52.560;13.566;2023-10-31T15:57:13;11.00;;;0.30;;
5678;SDS011;2862;52.560;13.566;2023-10-31T16:07:22;12.70;;;0.40;;
5678;SDS011;2862;52.560;13.566;2023-10-31T16:17:26;12.17;;;0.30;;
5678;SDS011;2862;52.560;13.566;2023-10-31T16:27:30;12.73;;;0.30;;
5678;SDS011;2862;52.560;13.566;2023-10-31T16:37:34;11.43;;;0.40;;
5678;SDS011;2862;52.560;13.566;2023-10-31T16:47:36;11.10;;;0.40;;
5678;SDS011;2862;52.560;13.566;2023-10-31T16:57:41;11.17;;;0.33;;
5678;SDS011;2862;52.560;13.566;2023-10-31T17:07:44;11.00;;;0.30;;
5678;SDS011;2862;52.560;13.566;2023-10-31T17:17:48;10.87;;;0.40;;
5678;SDS011;2862;52.560;13.566;2023-10-31T17:27:51;12.43;;;1.10;;
5678;SDS011;2862;52.560;13.566;2023-10-31T17:37:55;13.27;;;1.00;;
5678;SDS011;2862;52.560;13.566;2023-10-31T17:47:58;16.00;;;1.03;;
5678;SDS011;2862;52.560;13.566;2023-10-31T17:58:02;14.80;;;1.07;;
5678;SDS011;2862;52.560;13.566;2023-10-31T18:08:05;16.10;;;1.63;;
5678;SDS011;2862;52.560;13.566;2023-10-31T18:18:10;12.27;;;0.90;;
5678;SDS011;2862;52.560;13.566;2023-10-31T18:28:13;12.87;;;1.10;;
5678;SDS011;2862;52.560;13.566;2023-10-31T18:38:17;13.57;;;1.20;;
5678;SDS011;2862;52.560;13.566;2023-10-31T18:48:20;12.40;;;0.63;;
5678;SDS011;2862;52.560;13.566;2023-10-31T18:58:24;12.57;;;1.00;;
5678;SDS011;2862;52.560;13.566;2023-10-31T19:08:27;12.13;;;0.40;;
5678;SDS011;2862;52.560;13.566;2023-10-31T19:18:31;11.20;;;0.40;;
5678;SDS011;2862;52.560;13.566;2023-10-31T19:28:35;12.60;;;0.40;;
5678;SDS011;2862;52.560;13.566;2023-10-31T19:38:41;10.90;;;0.20;;
5678;SDS011;2862;52.560;13.566;2023-10-31T19:48:44;10.90;;;0.27;;
5678;SDS011;2862;52.560;13.566;2023-10-31T19:58:48;10.63;;;0.27;;
5678;SDS011;2862;52.560;13.566;2023-10-31T20:08:50;13.47;;;0.60;;
5678;SDS011;2862;52.560;13.566;2023-10-31T20:18:56;11.90;;;0.27;;
5678;SDS011;2862;52.560;13.566;2023-10-31T20:28:59;11.50;;;0.53;;
5678;SDS011;2862;52.560;13.566;2023-10-31T20:39:05;15.90;;;0.40;;
5678;SDS011;2862;52.560;13.566;2023-10-31T20:49:08;12.50;;;0.23;;
5678;SDS011;2862;52.560;13.566;2023-10-31T20:59:12;16.00;;;0.30;;
5678;SDS011;2862;52.560;13.566;2023-10-31T21:09:16;10.80;;;0.20;;
5678;SDS011;2862;52.560;13.566;2023-10-31T21:19:21;14.63;;;0.20;;
5678;SDS011;2862;52.560;13.566;2023-10-31T21:29:24;11.53;;;0.30;;
5678;SDS011;2862;52.560;13.566;2023-10-31T21:39:29;11.30;;;0.20;;
5678;SDS011;2862;52.560;13.566;2023-10-31T21:49:32;10.53;;;0.27;;
5678;SDS011;2862;52.560;13.566;2023-10-31T21:59:36;11.90;;;0.50;;
5678;SDS011;2862;52.560;13.566;2023-10-31T22:09:39;26.13;;;3.83;;
5678;SDS011;2862;52.560;13.566;2023-10-31T22:19:43;16.23;;;0.30;;
5678;SDS011;2862;52.560;13.566;2023-10-31T22:29:46;10.80;;;0.20;;
5678;SDS011;2862;52.560;13.566;2023-10-31T22:39:52;11.10;;;0.20;;
5678;SDS011;2862;52.560;13.566;2023-10-31T22:49:55;12.40;;;0.20;;
5678;SDS011;2862;52.560;13.566;2023-10-31T23:00:00;13.50;;;0.20;;
5678;SDS011;2862;52.560;13.566;2023-10-31T23:10:08;16.83;;;0.30;;
5678;SDS011;2862;52.560;13.566;2023-10-31T23:20:13;13.70;;;0.30;;
5678;SDS011;2862;52.560;13.566;2023-10-31T23:30:16;13.13;;;0.20;;
5678;SDS011;2862;52.560;13.566;2023-10-31T23:40:20;14.10;;;0.30;;
5678;SDS011;2862;52.560;13.566;2023-10-31T23:50:23;11.07;;;0.20;;
